createdAt,value
2022-10-11T00:03:30.522Z,9.7
2022-10-11T00:08:37.898Z,9.9
2022-10-11T00:13:45.294Z,10
2022-10-11T00:18:52.709Z,9.9
2022-10-11T00:24:00.126Z,9.4
2022-10-11T00:29:07.539Z,9.4
2022-10-11T00:34:14.959Z,9.1
2022-10-11T00:39:22.479Z,8.6
2022-10-11T00:44:29.998Z,8.9
2022-10-11T00:49:37.512Z,8.3
2022-10-11T00:54:45.045Z,8.3
2022-10-11T00:59:52.637Z,7.9
2022-10-11T01:05:00.192Z,7.6
2022-10-11T01:10:07.723Z,7.3
2022-10-11T01:15:15.322Z,6.9
2022-10-11T01:20:22.894Z,6.7
2022-10-11T01:25:30.518Z,6.5
2022-10-11T01:30:38.137Z,6.3
2022-10-11T01:35:45.733Z,6
2022-10-11T01:40:53.418Z,6.2
2022-10-11T01:46:01.219Z,6.3
2022-10-11T01:51:09.023Z,6.2
2022-10-11T01:56:16.841Z,6.3
2022-10-11T02:01:24.630Z,5.7
2022-10-11T02:06:32.438Z,5.9
2022-10-11T02:11:40.271Z,5.8
2022-10-11T02:16:48.096Z,6.4
2022-10-11T02:21:55.871Z,6.7
2022-10-11T02:27:03.657Z,7.2
2022-10-11T02:32:11.393Z,6.7
2022-10-11T02:37:19.191Z,6.9
2022-10-11T02:42:26.957Z,6.9
2022-10-11T02:47:34.728Z,7.1
2022-10-11T02:52:42.754Z,7.4
2022-10-11T02:57:50.720Z,7.2
2022-10-11T03:02:58.712Z,6.8
2022-10-11T03:08:06.726Z,6.3
2022-10-11T03:13:14.704Z,6
2022-10-11T03:18:22.705Z,6.7
2022-10-11T03:23:30.659Z,6.4
2022-10-11T03:28:38.689Z,6.7
2022-10-11T03:33:46.720Z,6.3
2022-10-11T03:38:54.742Z,6.2
2022-10-11T03:44:02.748Z,5.8
2022-10-11T03:49:10.759Z,5.6
2022-10-11T03:54:18.790Z,5.3
2022-10-11T03:59:27.445Z,5.3
2022-10-11T04:04:34.667Z,4.9
2022-10-11T04:09:42.490Z,4.5
2022-10-11T04:14:50.083Z,4.6
2022-10-11T04:19:57.743Z,4.8
2022-10-11T04:25:05.400Z,4.4
2022-10-11T04:30:13.107Z,4.9
2022-10-11T04:35:20.834Z,4.5
2022-10-11T04:40:28.549Z,3.9
2022-10-11T04:45:36.308Z,3.9
2022-10-11T04:50:44.072Z,4.2
2022-10-11T04:55:51.732Z,3.8
2022-10-11T05:00:59.354Z,3.8
2022-10-11T05:06:07.028Z,3.8
2022-10-11T05:11:14.704Z,4.1
2022-10-11T05:16:22.392Z,4
2022-10-11T05:21:30.040Z,4.2
2022-10-11T05:26:37.705Z,3.5
2022-10-11T05:31:45.404Z,3.4
2022-10-11T05:36:53.165Z,3.7
2022-10-11T05:42:00.831Z,3.8
2022-10-11T05:47:08.481Z,3.8
2022-10-11T05:52:16.186Z,3.5
2022-10-11T05:57:23.871Z,4.3
2022-10-11T06:02:31.560Z,4.3
2022-10-11T06:07:39.230Z,4.3
2022-10-11T06:12:47.019Z,5
2022-10-11T06:17:54.815Z,5.2
2022-10-11T06:23:02.574Z,5.5
2022-10-11T06:28:10.361Z,6.4
2022-10-11T06:33:18.125Z,6.3
2022-10-11T06:38:25.914Z,7.1
2022-10-11T06:43:33.549Z,8.6
2022-10-11T06:48:41.380Z,9
2022-10-11T06:53:49.015Z,8.9
2022-10-11T06:58:56.524Z,8.8
2022-10-11T07:04:04.135Z,9
2022-10-11T07:09:11.634Z,10.5
2022-10-11T07:14:19.341Z,11.3
2022-10-11T07:19:27.142Z,11.6
2022-10-11T07:24:34.812Z,11.9
2022-10-11T07:29:42.507Z,12.7
2022-10-11T07:34:50.368Z,12.6
2022-10-11T07:39:57.976Z,12.9
2022-10-11T07:45:05.687Z,13.3
2022-10-11T07:50:13.286Z,12.5
2022-10-11T07:55:20.893Z,13.4
2022-10-11T08:00:28.514Z,13.9
2022-10-11T08:05:36.133Z,13.2
2022-10-11T08:10:43.727Z,14.7
2022-10-11T08:15:51.172Z,15.1
2022-10-11T08:20:58.977Z,14.5
2022-10-11T08:26:06.964Z,15.6
2022-10-11T08:31:15.303Z,13.6
2022-10-11T08:36:22.016Z,14.9
2022-10-11T08:41:29.125Z,16
2022-10-11T08:46:36.318Z,15.3
2022-10-11T08:51:43.502Z,15.5
2022-10-11T08:56:50.691Z,15.9
2022-10-11T09:01:57.853Z,14.9
2022-10-11T09:07:04.990Z,16.3
2022-10-11T09:12:12.113Z,15.2
2022-10-11T09:17:19.234Z,16.2
2022-10-11T09:22:26.375Z,18.1
2022-10-11T09:27:33.620Z,17.3
2022-10-11T09:32:40.605Z,16.2
2022-10-11T09:37:47.727Z,15.5
2022-10-11T09:42:54.899Z,18
2022-10-11T09:48:01.984Z,16.3
2022-10-11T09:53:08.986Z,15.9
2022-10-11T09:58:16.106Z,17.5
2022-10-11T10:03:23.283Z,15.5
2022-10-11T10:08:30.236Z,16.8
2022-10-11T10:13:37.393Z,18
2022-10-11T10:18:44.359Z,18.2
2022-10-11T10:23:51.399Z,17.5
2022-10-11T10:28:58.383Z,16.5
2022-10-11T10:34:05.376Z,14.3
2022-10-11T10:39:12.381Z,13.5
2022-10-11T10:44:19.542Z,14
2022-10-11T10:49:26.748Z,14.3
2022-10-11T10:54:33.964Z,16.5
2022-10-11T10:59:41.167Z,20.2
2022-10-11T11:04:48.352Z,19.6
2022-10-11T11:09:55.492Z,20.6
2022-10-11T11:15:02.624Z,18.8
2022-10-11T11:20:09.766Z,14.6
2022-10-11T11:25:16.713Z,0
2022-10-11T11:30:23.859Z,0
2022-10-11T11:35:30.973Z,0
2022-10-11T11:40:38.110Z,0
2022-10-11T11:45:45.345Z,0
2022-10-11T11:50:52.774Z,0
2022-10-11T11:56:00.061Z,0
2022-10-11T12:01:07.514Z,0
2022-10-11T12:06:14.942Z,0
2022-10-11T12:11:22.232Z,0
2022-10-11T12:16:29.547Z,0
2022-10-11T12:21:36.837Z,0
2022-10-11T12:26:44.095Z,0
2022-10-11T12:31:51.347Z,0
2022-10-11T12:36:58.584Z,0
2022-10-11T12:42:05.791Z,0
2022-10-11T12:47:12.986Z,0
2022-10-11T12:52:20.279Z,0
2022-10-11T12:57:28.153Z,0
2022-10-11T13:02:36.072Z,0
2022-10-11T13:07:44.043Z,0
2022-10-11T13:12:52.071Z,0
2022-10-11T13:18:00.099Z,0
2022-10-11T13:23:06.826Z,0
2022-10-11T13:28:13.762Z,0
2022-10-11T13:33:20.837Z,0
2022-10-11T13:38:27.820Z,0
2022-10-11T13:43:34.914Z,0
2022-10-11T13:48:41.765Z,0
2022-10-11T13:53:48.722Z,0
2022-10-11T13:58:55.726Z,0
2022-10-11T14:04:02.845Z,0
2022-10-11T14:09:09.751Z,0
2022-10-11T14:14:16.830Z,0
2022-10-11T14:19:23.867Z,0
2022-10-11T14:24:30.949Z,0
2022-10-11T14:29:37.986Z,0
2022-10-11T14:34:45.045Z,0
2022-10-11T14:39:52.081Z,0
2022-10-11T14:44:59.093Z,0
2022-10-11T14:50:06.147Z,0
2022-10-11T14:55:13.234Z,0
2022-10-11T15:00:20.268Z,0
2022-10-11T15:05:27.320Z,0
2022-10-11T15:10:34.432Z,0
2022-10-11T15:15:41.516Z,0
2022-10-11T15:20:48.606Z,0
2022-10-11T15:25:55.823Z,0
2022-10-11T15:31:03.081Z,0
2022-10-11T15:36:10.329Z,0
2022-10-11T15:41:17.636Z,0
2022-10-11T15:46:25.006Z,0
2022-10-11T15:51:32.335Z,0
2022-10-11T15:56:39.674Z,0
2022-10-11T16:01:47.061Z,0
2022-10-11T16:06:54.508Z,0
2022-10-11T16:12:01.990Z,0
2022-10-11T16:17:09.460Z,0
2022-10-11T16:22:16.941Z,0
2022-10-11T16:27:24.474Z,0
2022-10-11T16:32:32.043Z,0
2022-10-11T16:37:39.885Z,0
2022-10-11T16:42:47.711Z,0
2022-10-11T16:47:55.599Z,0
2022-10-11T16:53:03.453Z,0
2022-10-11T16:58:11.379Z,0
2022-10-11T17:03:19.306Z,0
2022-10-11T17:08:27.190Z,0
2022-10-11T17:13:35.248Z,0
2022-10-11T17:18:43.308Z,0
2022-10-11T17:23:51.285Z,0
2022-10-11T17:28:59.348Z,0
2022-10-11T17:34:07.467Z,0
2022-10-11T17:39:15.508Z,0
2022-10-11T17:44:24.224Z,0
2022-10-11T17:49:31.404Z,0
2022-10-11T17:54:39.062Z,0
2022-10-11T17:59:46.720Z,0
2022-10-11T18:04:54.386Z,0
2022-10-11T18:10:02.069Z,0
2022-10-11T18:15:09.667Z,0
2022-10-11T18:20:17.328Z,0
2022-10-11T18:25:25.003Z,0
2022-10-11T18:30:32.637Z,0
2022-10-11T18:35:40.309Z,0
2022-10-11T18:40:48.000Z,0
2022-10-11T18:45:55.710Z,0
2022-10-11T18:51:03.515Z,0
2022-10-11T18:56:11.179Z,0
2022-10-11T19:01:18.846Z,0
2022-10-11T19:06:26.605Z,0
2022-10-11T19:11:34.272Z,0
2022-10-11T19:16:42.084Z,0
2022-10-11T19:21:49.802Z,0
2022-10-11T19:26:57.516Z,0
2022-10-11T19:32:05.283Z,0
2022-10-11T19:37:13.021Z,0
2022-10-11T19:42:20.755Z,0
2022-10-11T19:47:28.508Z,0
2022-10-11T19:52:36.322Z,0
2022-10-11T19:57:44.125Z,0
2022-10-11T20:02:52.009Z,0
2022-10-11T20:07:59.866Z,0
2022-10-11T20:13:07.852Z,0
2022-10-11T20:18:15.703Z,0
2022-10-11T20:23:23.402Z,0
2022-10-11T20:28:31.353Z,0
2022-10-11T20:33:39.144Z,0
2022-10-11T20:38:47.050Z,0
2022-10-11T20:43:54.902Z,0
2022-10-11T20:49:02.755Z,0
2022-10-11T20:54:10.705Z,0
2022-10-11T20:59:18.553Z,0
2022-10-11T21:04:26.614Z,0
2022-10-11T21:09:34.686Z,0
2022-10-11T21:14:42.721Z,0
2022-10-11T21:19:50.715Z,0
2022-10-11T21:24:58.789Z,0
2022-10-11T21:30:06.785Z,0
2022-10-11T21:35:14.860Z,0
2022-10-11T21:40:22.947Z,0
2022-10-11T21:45:31.013Z,0
2022-10-11T21:50:39.143Z,0
2022-10-11T21:55:47.224Z,0
2022-10-11T22:00:55.218Z,0
2022-10-11T22:06:03.357Z,0
2022-10-11T22:11:11.722Z,0
2022-10-11T22:16:19.950Z,0
2022-10-11T22:21:28.275Z,0
2022-10-11T22:26:36.563Z,0
2022-10-11T22:31:44.852Z,0
2022-10-11T22:36:53.125Z,0
2022-10-11T22:42:01.411Z,0
2022-10-11T22:47:09.715Z,0
2022-10-11T22:52:17.992Z,0
2022-10-11T22:57:26.273Z,0
2022-10-11T23:02:34.558Z,0
2022-10-11T23:07:42.834Z,0
2022-10-11T23:12:51.147Z,0
2022-10-11T23:18:00.066Z,0
2022-10-11T23:23:08.955Z,0
2022-10-11T23:28:17.828Z,0
2022-10-11T23:33:26.714Z,0
2022-10-11T23:38:35.583Z,0
2022-10-11T23:43:44.484Z,0
2022-10-11T23:48:53.366Z,0
2022-10-11T23:54:02.276Z,0
2022-10-11T23:59:11.189Z,0
